Time;durP1;ratioP1;P1;durP2;ratioP2;P2;SDS_P1;SDS_P2;PMS_P1;PMS_P2;Temp;Humidity;BMP_temperature;BMP_pressure;BME280_temperature;BME280_humidity;BME280_pressure;Samples;Min_cycle;Max_cycle;Signal;HPM_P1;HPM_P2
2023/03/27 00:01:11;;;;;;;3.90;2.60;;;;;;;;;;5074069;28;20282;-64
2023/03/27 00:03:39;;;;;;;2.80;2.60;;;;;;;;;;5073658;28;20201;-64
2023/03/27 00:06:10;;;;;;;1.60;1.50;;;;;;;;;;5073363;28;20224;-64
2023/03/27 00:08:37;;;;;;;1.00;1.00;;;;;;;;;;5072358;28;20674;-64
2023/03/27 00:11:06;;;;;;;2.00;1.90;;;;;;;;;;5074132;28;20204;-64
2023/03/27 00:13:35;;;;;;;1.43;1.23;;;;;;;;;;5092388;28;20240;-64
2023/03/27 00:16:15;;;;;;;1.10;1.10;;;;;;;;;;5075419;28;20744;-64
2023/03/27 00:18:44;;;;;;;2.37;1.90;;;;;;;;;;5091532;28;20243;-64
2023/03/27 00:21:12;;;;;;;2.17;1.97;;;;;;;;;;5071467;28;20679;-64
2023/03/27 00:23:41;;;;;;;1.80;1.20;;;;;;;;;;5070204;28;20487;-63
2023/03/27 00:26:08;;;;;;;10.97;5.40;;;;;;;;;;5066724;28;20233;-64
2023/03/27 00:28:36;;;;;;;1.10;1.10;;;;;;;;;;5073840;28;20201;-64
2023/03/27 00:31:03;;;;;;;7.97;3.30;;;;;;;;;;5070120;28;20205;-64
2023/03/27 00:33:31;;;;;;;1.87;1.77;;;;;;;;;;5071763;28;20232;-63
2023/03/27 00:35:58;;;;;;;1.20;1.20;;;;;;;;;;5091155;28;20229;-64
2023/03/27 00:38:25;;;;;;;1.00;1.00;;;;;;;;;;5073677;28;20274;-63
2023/03/27 00:40:54;;;;;;;1.30;1.30;;;;;;;;;;5073517;28;20259;-64
2023/03/27 00:43:21;;;;;;;1.33;1.10;;;;;;;;;;5066915;28;20577;-63
2023/03/27 00:45:50;;;;;;;1.20;1.20;;;;;;;;;;5068641;28;20222;-64
2023/03/27 00:48:19;;;;;;;1.20;1.20;;;;;;;;;;5071963;28;20297;-64
2023/03/27 00:50:47;;;;;;;1.67;1.60;;;;;;;;;;5069189;28;20209;-64
2023/03/27 00:53:16;;;;;;;1.20;1.20;;;;;;;;;;5052643;28;20210;-64
2023/03/27 00:55:46;;;;;;;1.13;1.13;;;;;;;;;;5052545;28;20225;-65
2023/03/27 00:58:18;;;;;;;1.10;1.10;;;;;;;;;;5089773;28;20281;-64
2023/03/27 01:00:48;;;;;;;1.50;1.30;;;;;;;;;;5088531;28;20233;-64
2023/03/27 01:03:15;;;;;;;1.20;1.20;;;;;;;;;;5070443;28;20236;-62
2023/03/27 01:05:43;;;;;;;1.67;1.57;;;;;;;;;;5068903;28;20221;-65
2023/03/27 01:08:11;;;;;;;2.67;2.40;;;;;;;;;;5081997;28;20233;-63
2023/03/27 01:10:56;;;;;;;1.17;1.17;;;;;;;;;;5068759;28;20213;-64
2023/03/27 01:13:23;;;;;;;6.27;3.07;;;;;;;;;;5069044;28;20224;-64
2023/03/27 01:16:00;;;;;;;3.67;2.73;;;;;;;;;;5070416;28;20859;-65
2023/03/27 01:19:03;;;;;;;2.80;2.40;;;;;;;;;;5069860;28;20687;-64
2023/03/27 01:21:33;;;;;;;3.77;2.70;;;;;;;;;;4998398;28;20314;-64
2023/03/27 01:24:16;;;;;;;1.20;1.20;;;;;;;;;;5041985;28;20227;-63
2023/03/27 01:26:43;;;;;;;1.80;1.73;;;;;;;;;;5051458;28;20226;-63
2023/03/27 01:29:26;;;;;;;1.50;1.50;;;;;;;;;;5080643;28;20201;-64
2023/03/27 01:31:59;;;;;;;3.70;3.50;;;;;;;;;;5085023;28;20288;-63
2023/03/27 01:34:49;;;;;;;1.00;1.00;;;;;;;;;;5071482;28;20251;-63
2023/03/27 01:37:29;;;;;;;1.30;1.30;;;;;;;;;;5074146;28;20212;-63
2023/03/27 01:40:06;;;;;;;0.90;0.90;;;;;;;;;;5072228;28;20231;-65
2023/03/27 01:42:46;;;;;;;0.90;0.90;;;;;;;;;;5090910;28;20284;-64
2023/03/27 01:45:22;;;;;;;1.00;1.00;;;;;;;;;;5072145;28;20232;-64
2023/03/27 01:48:19;;;;;;;1.10;1.10;;;;;;;;;;5068642;28;20663;-65
2023/03/27 01:50:52;;;;;;;2.37;2.23;;;;;;;;;;5058577;28;20266;-64
2023/03/27 01:53:32;;;;;;;3.37;2.53;;;;;;;;;;5068394;28;20210;-64
2023/03/27 01:56:01;;;;;;;1.90;1.80;;;;;;;;;;5068582;28;20229;-64
2023/03/27 01:58:35;;;;;;;2.07;1.97;;;;;;;;;;5068885;28;20205;-64
2023/03/27 02:01:03;;;;;;;2.07;1.97;;;;;;;;;;5068908;28;20261;-63
2023/03/27 02:03:34;;;;;;;4.10;2.97;;;;;;;;;;5069349;28;20244;-63
2023/03/27 02:06:13;;;;;;;1.73;1.63;;;;;;;;;;5068247;28;20218;-63
2023/03/27 02:08:46;;;;;;;1.97;1.87;;;;;;;;;;5069427;28;20208;-64
2023/03/27 02:11:14;;;;;;;2.50;2.40;;;;;;;;;;5071011;28;20201;-64
2023/03/27 02:13:47;;;;;;;3.03;2.43;;;;;;;;;;5071018;28;20727;-63
2023/03/27 02:16:17;;;;;;;1.70;1.70;;;;;;;;;;5071524;28;20228;-64
2023/03/27 02:18:49;;;;;;;1.63;1.63;;;;;;;;;;5065515;28;20289;-63
2023/03/27 02:21:16;;;;;;;1.17;1.17;;;;;;;;;;5068163;28;20678;-63
2023/03/27 02:23:43;;;;;;;1.20;1.20;;;;;;;;;;5052068;28;20248;-63
2023/03/27 02:26:12;;;;;;;1.70;1.60;;;;;;;;;;5073436;28;20267;-64
2023/03/27 02:28:55;;;;;;;2.00;1.90;;;;;;;;;;5088544;28;20238;-64
2023/03/27 02:31:34;;;;;;;2.40;2.30;;;;;;;;;;5088320;28;20197;-63
2023/03/27 02:34:21;;;;;;;1.50;1.50;;;;;;;;;;5067636;28;20831;-64
2023/03/27 02:37:00;;;;;;;2.23;2.13;;;;;;;;;;5051638;28;20284;-63
2023/03/27 02:39:39;;;;;;;2.53;2.33;;;;;;;;;;5054638;28;20689;-64
2023/03/27 02:42:29;;;;;;;2.00;1.90;;;;;;;;;;5085495;28;20643;-64
2023/03/27 02:45:05;;;;;;;1.63;1.60;;;;;;;;;;5074790;28;20280;-64
2023/03/27 02:47:38;;;;;;;1.70;1.70;;;;;;;;;;5092671;28;20661;-63
2023/03/27 02:50:12;;;;;;;1.80;1.70;;;;;;;;;;5072052;28;20711;-63
2023/03/27 02:52:43;;;;;;;1.60;1.50;;;;;;;;;;5073755;28;20283;-64
2023/03/27 02:55:13;;;;;;;2.10;2.00;;;;;;;;;;5070692;28;20197;-64
2023/03/27 02:57:44;;;;;;;2.30;2.10;;;;;;;;;;5073256;28;20254;-64
2023/03/27 03:00:23;;;;;;;2.73;2.50;;;;;;;;;;5072386;28;20235;-64
2023/03/27 03:02:53;;;;;;;2.03;1.93;;;;;;;;;;5071439;28;20244;-63
2023/03/27 03:05:22;;;;;;;3.83;2.77;;;;;;;;;;5073903;28;20912;-64
2023/03/27 03:07:53;;;;;;;5.83;3.77;;;;;;;;;;5071489;28;20251;-64
2023/03/27 03:10:20;;;;;;;3.57;3.27;;;;;;;;;;5057693;28;20243;-64
2023/03/27 03:12:47;;;;;;;4.27;3.27;;;;;;;;;;5071523;28;20232;-63
2023/03/27 03:15:17;;;;;;;5.00;4.07;;;;;;;;;;5073182;28;20244;-64
2023/03/27 03:17:45;;;;;;;4.60;3.93;;;;;;;;;;5071418;28;20209;-63
2023/03/27 03:20:13;;;;;;;4.80;3.27;;;;;;;;;;5074550;28;20241;-64
2023/03/27 03:22:40;;;;;;;4.40;3.83;;;;;;;;;;5074912;28;20208;-63
2023/03/27 03:25:11;;;;;;;13.90;7.80;;;;;;;;;;5071927;28;20209;-64
2023/03/27 03:27:40;;;;;;;5.60;3.90;;;;;;;;;;5066435;28;20293;-64
2023/03/27 03:30:08;;;;;;;9.63;5.43;;;;;;;;;;5070770;28;20202;-63
2023/03/27 03:32:35;;;;;;;5.67;4.60;;;;;;;;;;5073601;28;20209;-62
2023/03/27 03:35:03;;;;;;;5.63;4.27;;;;;;;;;;5071054;28;20227;-64
2023/03/27 03:37:37;;;;;;;6.27;5.67;;;;;;;;;;5061057;28;20200;-64
2023/03/27 03:40:10;;;;;;;5.63;4.40;;;;;;;;;;5070626;28;20283;-64
2023/03/27 03:42:56;;;;;;;7.90;7.10;;;;;;;;;;5071118;28;20204;-62
2023/03/27 03:45:23;;;;;;;5.27;4.60;;;;;;;;;;5071197;28;20280;-62
2023/03/27 03:47:51;;;;;;;5.77;4.57;;;;;;;;;;5071106;28;20207;-62
2023/03/27 03:50:18;;;;;;;5.07;4.17;;;;;;;;;;5068985;28;20255;-63
2023/03/27 03:52:46;;;;;;;4.33;3.93;;;;;;;;;;5069445;28;20254;-63
2023/03/27 03:55:14;;;;;;;7.67;5.47;;;;;;;;;;5074579;28;20576;-61
2023/03/27 03:57:49;;;;;;;8.47;6.40;;;;;;;;;;5070279;28;20204;-62
2023/03/27 04:00:17;;;;;;;10.90;7.57;;;;;;;;;;5073087;28;20273;-61
2023/03/27 04:02:45;;;;;;;12.17;7.13;;;;;;;;;;5074108;28;20199;-61
2023/03/27 04:05:12;;;;;;;12.40;6.87;;;;;;;;;;5069994;28;20212;-64
2023/03/27 04:07:41;;;;;;;14.07;8.03;;;;;;;;;;5073317;28;20226;-64
2023/03/27 04:10:09;;;;;;;13.87;7.73;;;;;;;;;;5074184;28;20300;-64
2023/03/27 04:12:36;;;;;;;10.67;7.13;;;;;;;;;;5072593;28;20203;-62
2023/03/27 04:15:04;;;;;;;12.20;6.97;;;;;;;;;;5073688;28;20207;-62
2023/03/27 04:17:32;;;;;;;24.10;9.00;;;;;;;;;;5073400;28;20203;-63
2023/03/27 04:19:59;;;;;;;14.77;6.63;;;;;;;;;;5069241;28;20211;-62
2023/03/27 04:22:28;;;;;;;16.33;8.07;;;;;;;;;;5069398;28;20785;-62
2023/03/27 04:24:56;;;;;;;10.97;6.23;;;;;;;;;;5086982;28;20202;-63
2023/03/27 04:27:23;;;;;;;13.80;5.97;;;;;;;;;;5088117;28;20595;-62
2023/03/27 04:29:50;;;;;;;13.90;6.27;;;;;;;;;;5069464;28;20231;-64
2023/03/27 04:32:18;;;;;;;10.90;6.43;;;;;;;;;;5069663;28;20243;-62
2023/03/27 04:34:49;;;;;;;9.70;6.77;;;;;;;;;;5069294;28;20218;-62
2023/03/27 04:37:17;;;;;;;12.97;7.13;;;;;;;;;;5068570;28;20228;-61
2023/03/27 04:39:51;;;;;;;6.23;4.70;;;;;;;;;;5071772;28;20212;-62
2023/03/27 04:42:22;;;;;;;11.57;4.90;;;;;;;;;;5072248;28;20641;-63
2023/03/27 04:44:51;;;;;;;9.33;4.83;;;;;;;;;;5069172;28;20251;-63
2023/03/27 04:47:19;;;;;;;11.50;5.03;;;;;;;;;;5053181;28;20222;-61
2023/03/27 04:49:49;;;;;;;13.23;4.93;;;;;;;;;;5063658;28;20198;-63
2023/03/27 04:52:17;;;;;;;16.50;5.30;;;;;;;;;;5053335;28;20202;-62
2023/03/27 04:54:45;;;;;;;7.70;4.80;;;;;;;;;;5052815;28;20672;-62
2023/03/27 04:57:14;;;;;;;9.20;4.43;;;;;;;;;;5058335;28;20292;-63
2023/03/27 04:59:42;;;;;;;10.07;4.50;;;;;;;;;;5073109;28;20670;-62
2023/03/27 05:02:09;;;;;;;10.87;5.07;;;;;;;;;;5072539;28;20265;-62
2023/03/27 05:04:37;;;;;;;9.03;3.60;;;;;;;;;;5079896;28;20871;-62
2023/03/27 05:07:05;;;;;;;8.87;3.90;;;;;;;;;;5069156;28;20276;-63
2023/03/27 05:09:32;;;;;;;8.90;4.27;;;;;;;;;;5069122;28;20809;-62
2023/03/27 05:12:00;;;;;;;8.70;4.03;;;;;;;;;;5069164;28;20203;-64
2023/03/27 05:14:27;;;;;;;17.37;7.50;;;;;;;;;;5066728;28;20242;-62
2023/03/27 05:16:56;;;;;;;9.53;3.83;;;;;;;;;;5052479;28;20626;-63
2023/03/27 05:19:24;;;;;;;11.03;5.13;;;;;;;;;;5069115;28;20663;-64
2023/03/27 05:21:53;;;;;;;10.03;5.00;;;;;;;;;;5072765;28;20271;-64
2023/03/27 05:24:20;;;;;;;11.03;6.17;;;;;;;;;;5088549;28;20259;-63
2023/03/27 05:26:47;;;;;;;16.57;5.93;;;;;;;;;;5068193;28;20246;-63
2023/03/27 05:29:15;;;;;;;9.47;5.27;;;;;;;;;;5052587;28;20763;-64
2023/03/27 05:31:42;;;;;;;13.27;5.60;;;;;;;;;;5061548;28;20247;-65
2023/03/27 05:34:10;;;;;;;15.53;5.60;;;;;;;;;;5072396;28;20232;-63
2023/03/27 05:36:38;;;;;;;16.60;6.13;;;;;;;;;;5071082;28;20237;-62
2023/03/27 05:39:05;;;;;;;15.27;5.10;;;;;;;;;;5068439;28;20242;-64
2023/03/27 05:41:34;;;;;;;22.33;5.73;;;;;;;;;;5068514;28;20750;-63
2023/03/27 05:44:02;;;;;;;9.67;5.17;;;;;;;;;;5070118;28;20248;-63
2023/03/27 05:46:30;;;;;;;17.53;5.83;;;;;;;;;;5068500;28;20223;-64
2023/03/27 05:49:01;;;;;;;22.53;5.00;;;;;;;;;;5069179;28;20291;-62
2023/03/27 05:51:28;;;;;;;17.10;7.10;;;;;;;;;;5060527;28;20268;-62
2023/03/27 05:53:56;;;;;;;19.20;6.20;;;;;;;;;;5061612;28;20214;-65
2023/03/27 05:56:23;;;;;;;12.20;5.83;;;;;;;;;;5071732;28;20221;-63
2023/03/27 05:58:51;;;;;;;14.37;5.63;;;;;;;;;;5066544;28;20231;-62
2023/03/27 06:01:19;;;;;;;13.47;5.90;;;;;;;;;;5068591;28;20214;-63
2023/03/27 06:03:48;;;;;;;11.90;5.43;;;;;;;;;;5055276;28;20202;-65
2023/03/27 06:06:15;;;;;;;12.37;5.07;;;;;;;;;;5065174;28;20223;-64
2023/03/27 06:08:43;;;;;;;13.40;5.37;;;;;;;;;;5068966;28;20234;-64
2023/03/27 06:11:11;;;;;;;9.73;5.37;;;;;;;;;;5069347;28;20222;-63
2023/03/27 06:13:38;;;;;;;12.53;5.10;;;;;;;;;;5069821;28;20224;-64
2023/03/27 06:16:06;;;;;;;8.33;4.87;;;;;;;;;;5072500;28;20229;-63
2023/03/27 06:18:34;;;;;;;10.03;5.07;;;;;;;;;;5084732;28;20213;-64
2023/03/27 06:21:02;;;;;;;9.23;4.87;;;;;;;;;;5071991;28;20210;-64
2023/03/27 06:23:29;;;;;;;6.17;4.37;;;;;;;;;;5069472;28;20209;-62
2023/03/27 06:25:57;;;;;;;8.30;4.60;;;;;;;;;;5055759;28;20265;-64
2023/03/27 06:28:25;;;;;;;9.90;5.17;;;;;;;;;;5056124;28;20664;-64
2023/03/27 06:30:52;;;;;;;11.30;5.10;;;;;;;;;;5074075;28;20210;-64
2023/03/27 06:33:19;;;;;;;10.07;4.47;;;;;;;;;;5055704;28;20670;-62
2023/03/27 06:35:47;;;;;;;9.97;4.20;;;;;;;;;;5063736;28;20603;-63
2023/03/27 06:38:20;;;;;;;6.50;3.87;;;;;;;;;;5074366;28;20201;-62
2023/03/27 06:40:48;;;;;;;12.67;4.40;;;;;;;;;;5074662;28;20247;-62
2023/03/27 06:43:17;;;;;;;10.13;4.07;;;;;;;;;;5075461;28;20196;-65
2023/03/27 06:45:47;;;;;;;12.63;3.70;;;;;;;;;;5075189;28;20247;-64
2023/03/27 06:48:16;;;;;;;9.43;4.60;;;;;;;;;;5067467;28;20213;-64
2023/03/27 06:50:49;;;;;;;9.33;4.20;;;;;;;;;;5070578;28;20208;-65
2023/03/27 06:53:17;;;;;;;11.13;4.77;;;;;;;;;;5074872;28;20667;-62
2023/03/27 06:55:48;;;;;;;11.23;4.70;;;;;;;;;;5073559;28;20233;-63
2023/03/27 06:58:17;;;;;;;13.67;5.00;;;;;;;;;;5075245;28;20588;-64
2023/03/27 07:00:45;;;;;;;16.40;8.97;;;;;;;;;;5076201;28;20211;-64
2023/03/27 07:03:13;;;;;;;11.83;4.83;;;;;;;;;;5069188;28;20234;-63
2023/03/27 07:05:41;;;;;;;11.63;4.83;;;;;;;;;;5073892;28;20313;-64
2023/03/27 07:08:11;;;;;;;9.67;5.10;;;;;;;;;;5071766;28;20209;-63
2023/03/27 07:10:49;;;;;;;15.53;5.07;;;;;;;;;;5061735;28;20630;-64
2023/03/27 07:13:36;;;;;;;5.77;3.30;;;;;;;;;;5076719;28;20192;-65
2023/03/27 07:16:04;;;;;;;6.40;3.93;;;;;;;;;;5070984;28;20279;-63
2023/03/27 07:18:31;;;;;;;13.80;4.27;;;;;;;;;;5073420;28;20202;-64
2023/03/27 07:20:59;;;;;;;12.47;4.30;;;;;;;;;;5071512;28;20200;-64
2023/03/27 07:23:27;;;;;;;9.77;4.17;;;;;;;;;;5071417;28;20217;-64
2023/03/27 07:25:57;;;;;;;11.63;3.80;;;;;;;;;;5070293;28;20226;-63
2023/03/27 07:28:25;;;;;;;8.13;4.07;;;;;;;;;;5071464;28;20210;-64
2023/03/27 07:30:53;;;;;;;15.37;4.13;;;;;;;;;;5074174;28;20212;-64
2023/03/27 07:33:21;;;;;;;9.40;3.80;;;;;;;;;;5075040;28;20682;-64
2023/03/27 07:35:48;;;;;;;8.00;3.73;;;;;;;;;;5070217;28;20764;-64
2023/03/27 07:38:17;;;;;;;9.27;4.10;;;;;;;;;;5090155;28;20201;-64
2023/03/27 07:40:49;;;;;;;11.60;4.23;;;;;;;;;;5054581;28;20248;-64
2023/03/27 07:43:16;;;;;;;13.63;4.67;;;;;;;;;;5054216;28;20257;-64
2023/03/27 07:45:44;;;;;;;11.23;4.10;;;;;;;;;;5054391;28;20249;-63
2023/03/27 07:48:16;;;;;;;12.50;4.03;;;;;;;;;;5067308;28;20623;-63
2023/03/27 07:50:43;;;;;;;9.00;3.30;;;;;;;;;;5064663;28;20206;-64
2023/03/27 07:53:11;;;;;;;9.00;4.07;;;;;;;;;;5070848;28;20815;-64
2023/03/27 07:55:58;;;;;;;13.03;3.83;;;;;;;;;;5071182;28;20259;-62
2023/03/27 07:58:26;;;;;;;10.07;4.23;;;;;;;;;;5070924;28;20201;-64
2023/03/27 08:00:53;;;;;;;13.50;4.43;;;;;;;;;;5070716;28;20686;-64
2023/03/27 08:03:24;;;;;;;5.67;3.83;;;;;;;;;;5072984;28;20285;-62
2023/03/27 08:05:53;;;;;;;9.73;4.37;;;;;;;;;;5064242;28;20228;-64
2023/03/27 08:08:22;;;;;;;7.93;4.00;;;;;;;;;;5074006;28;20202;-63
2023/03/27 08:10:49;;;;;;;8.37;3.83;;;;;;;;;;5065064;28;20202;-64
2023/03/27 08:13:17;;;;;;;7.17;3.87;;;;;;;;;;5068714;28;20209;-65
2023/03/27 08:15:44;;;;;;;10.50;3.67;;;;;;;;;;5071342;28;20232;-63
2023/03/27 08:18:12;;;;;;;12.00;3.90;;;;;;;;;;5069964;28;20214;-64
2023/03/27 08:20:39;;;;;;;5.03;3.10;;;;;;;;;;5070851;28;20206;-64
2023/03/27 08:23:07;;;;;;;8.10;3.87;;;;;;;;;;5054075;28;20225;-64
2023/03/27 08:25:35;;;;;;;10.87;3.40;;;;;;;;;;5065378;28;20636;-65
2023/03/27 08:28:02;;;;;;;10.40;4.60;;;;;;;;;;5070262;28;20230;-62
2023/03/27 08:30:30;;;;;;;15.57;6.53;;;;;;;;;;5069887;28;20634;-62
2023/03/27 08:32:59;;;;;;;11.43;4.27;;;;;;;;;;5070228;28;20251;-63
2023/03/27 08:35:26;;;;;;;10.60;4.10;;;;;;;;;;5072724;28;20651;-64
2023/03/27 08:37:54;;;;;;;9.77;3.73;;;;;;;;;;5072044;28;20257;-63
2023/03/27 08:40:24;;;;;;;7.23;3.83;;;;;;;;;;5073216;28;20211;-63
2023/03/27 08:42:54;;;;;;;8.33;3.63;;;;;;;;;;5069571;28;20225;-64
2023/03/27 08:45:26;;;;;;;14.40;4.00;;;;;;;;;;5068213;28;20231;-64
2023/03/27 08:48:14;;;;;;;7.13;2.90;;;;;;;;;;5069773;28;20215;-64
2023/03/27 08:50:53;;;;;;;9.83;3.03;;;;;;;;;;5065966;28;20205;-64
2023/03/27 08:53:27;;;;;;;9.00;3.30;;;;;;;;;;5069473;28;20206;-62
2023/03/27 08:55:55;;;;;;;14.07;3.47;;;;;;;;;;5081968;28;20741;-64
2023/03/27 08:58:23;;;;;;;7.90;3.60;;;;;;;;;;5070226;28;20202;-62
2023/03/27 09:00:54;;;;;;;9.23;3.70;;;;;;;;;;5069164;28;20255;-62
2023/03/27 09:03:30;;;;;;;8.63;3.37;;;;;;;;;;5069808;28;20286;-62
2023/03/27 09:06:10;;;;;;;9.93;3.17;;;;;;;;;;5072565;28;20228;-62
2023/03/27 09:08:56;;;;;;;4.87;3.20;;;;;;;;;;5072966;28;20255;-64
2023/03/27 09:11:47;;;;;;;12.20;3.63;;;;;;;;;;5072650;28;20314;-62
2023/03/27 09:14:24;;;;;;;7.90;3.40;;;;;;;;;;5078794;28;20213;-62
2023/03/27 09:16:53;;;;;;;9.77;3.40;;;;;;;;;;5077014;28;20294;-64
2023/03/27 09:19:23;;;;;;;7.93;3.23;;;;;;;;;;5066832;28;20209;-62
2023/03/27 09:21:54;;;;;;;12.00;3.50;;;;;;;;;;5089672;28;20203;-62
2023/03/27 09:24:28;;;;;;;8.63;3.70;;;;;;;;;;5070951;28;20205;-63
2023/03/27 09:26:56;;;;;;;7.30;3.93;;;;;;;;;;5072750;28;20223;-62
2023/03/27 09:29:36;;;;;;;5.67;2.93;;;;;;;;;;5066810;28;20222;-63
2023/03/27 09:32:08;;;;;;;8.93;3.17;;;;;;;;;;5052864;28;20215;-64
2023/03/27 09:34:35;;;;;;;11.60;3.40;;;;;;;;;;5052292;28;20260;-62
2023/03/27 09:37:04;;;;;;;11.77;4.03;;;;;;;;;;5060403;28;20748;-64
2023/03/27 09:39:32;;;;;;;6.40;2.80;;;;;;;;;;5070158;28;20269;-63
2023/03/27 09:42:18;;;;;;;7.63;3.53;;;;;;;;;;5090102;28;20300;-63
2023/03/27 09:44:49;;;;;;;8.17;2.97;;;;;;;;;;5051847;28;20299;-63
2023/03/27 09:47:41;;;;;;;5.27;3.00;;;;;;;;;;5052639;28;20232;-63
2023/03/27 09:50:20;;;;;;;5.33;2.80;;;;;;;;;;5072350;28;20303;-63
2023/03/27 09:52:48;;;;;;;7.00;2.57;;;;;;;;;;5062805;28;20204;-62
2023/03/27 09:55:26;;;;;;;8.20;2.70;;;;;;;;;;5068206;28;20262;-64
2023/03/27 09:57:57;;;;;;;4.80;2.67;;;;;;;;;;5068849;28;20212;-64
2023/03/27 10:00:32;;;;;;;15.23;3.00;;;;;;;;;;5068818;28;20236;-64
2023/03/27 10:03:00;;;;;;;10.57;3.87;;;;;;;;;;5071768;28;20227;-62
2023/03/27 10:05:29;;;;;;;9.87;2.90;;;;;;;;;;5077999;28;20235;-65
2023/03/27 10:07:56;;;;;;;9.40;3.10;;;;;;;;;;5071794;28;20208;-63
2023/03/27 10:10:25;;;;;;;7.93;2.60;;;;;;;;;;5071697;28;20591;-63
2023/03/27 10:12:54;;;;;;;7.23;3.97;;;;;;;;;;5068322;28;20458;-63
2023/03/27 10:15:28;;;;;;;18.40;6.57;;;;;;;;;;5068335;28;20587;-63
2023/03/27 10:17:56;;;;;;;11.67;4.43;;;;;;;;;;5069703;28;20268;-64
2023/03/27 10:20:23;;;;;;;18.60;4.13;;;;;;;;;;5069953;28;20211;-64
2023/03/27 10:22:52;;;;;;;7.93;2.40;;;;;;;;;;5088170;28;20342;-65
2023/03/27 10:25:26;;;;;;;6.77;2.60;;;;;;;;;;5068205;28;20331;-63
2023/03/27 10:27:54;;;;;;;7.83;2.50;;;;;;;;;;5068626;28;20213;-65
2023/03/27 10:30:28;;;;;;;8.50;2.50;;;;;;;;;;5069863;28;20634;-65
2023/03/27 10:32:56;;;;;;;5.53;2.17;;;;;;;;;;5086427;28;20215;-64
2023/03/27 10:35:27;;;;;;;9.33;3.03;;;;;;;;;;5068387;28;20236;-65
2023/03/27 10:37:55;;;;;;;12.07;4.10;;;;;;;;;;5076760;28;20278;-63
2023/03/27 10:40:27;;;;;;;5.93;3.70;;;;;;;;;;5067709;28;20595;-63
2023/03/27 10:42:59;;;;;;;6.50;4.03;;;;;;;;;;5051465;28;20233;-64
2023/03/27 10:45:27;;;;;;;4.50;2.17;;;;;;;;;;5052096;28;20237;-62
2023/03/27 10:47:57;;;;;;;4.47;2.30;;;;;;;;;;5051432;28;20683;-64
2023/03/27 10:50:32;;;;;;;4.20;2.17;;;;;;;;;;5071134;28;20209;-63
2023/03/27 10:53:26;;;;;;;6.97;2.23;;;;;;;;;;5068207;28;20228;-64
2023/03/27 10:55:53;;;;;;;3.77;1.70;;;;;;;;;;5069255;28;20228;-64
2023/03/27 10:58:23;;;;;;;4.20;2.00;;;;;;;;;;5071946;28;20200;-65
2023/03/27 11:00:56;;;;;;;3.40;2.17;;;;;;;;;;5075491;28;20235;-64
2023/03/27 11:03:24;;;;;;;3.63;1.90;;;;;;;;;;5092372;28;20316;-63
2023/03/27 11:05:53;;;;;;;2.63;2.00;;;;;;;;;;5071497;28;20222;-64
2023/03/27 11:08:43;;;;;;;5.60;1.70;;;;;;;;;;5068518;28;20205;-65
2023/03/27 11:11:37;;;;;;;3.20;1.80;;;;;;;;;;5070662;28;20623;-63
2023/03/27 11:14:10;;;;;;;2.23;1.70;;;;;;;;;;5062358;28;20232;-64
2023/03/27 11:16:47;;;;;;;4.17;1.70;;;;;;;;;;5071021;28;20237;-64
2023/03/27 11:19:24;;;;;;;11.83;2.40;;;;;;;;;;5069275;28;20284;-64
2023/03/27 11:21:54;;;;;;;7.67;2.40;;;;;;;;;;5069603;28;20655;-65
2023/03/27 11:24:27;;;;;;;4.60;1.90;;;;;;;;;;5092187;28;20312;-64
2023/03/27 11:27:14;;;;;;;6.37;2.63;;;;;;;;;;5074610;28;20281;-64
2023/03/27 11:29:57;;;;;;;4.07;1.67;;;;;;;;;;5073525;28;20578;-65
2023/03/27 11:32:43;;;;;;;2.47;1.90;;;;;;;;;;5074619;28;20208;-64
2023/03/27 11:35:12;;;;;;;3.53;1.80;;;;;;;;;;5074501;28;20269;-65
2023/03/27 11:37:47;;;;;;;7.00;1.87;;;;;;;;;;5071144;28;20205;-65
2023/03/27 11:40:22;;;;;;;7.27;2.00;;;;;;;;;;5070936;28;20255;-65
2023/03/27 11:42:50;;;;;;;5.97;1.80;;;;;;;;;;5054310;28;20221;-65
2023/03/27 11:45:20;;;;;;;5.57;2.00;;;;;;;;;;5064647;28;20209;-64
2023/03/27 11:47:47;;;;;;;2.40;1.90;;;;;;;;;;5070596;28;20202;-64
2023/03/27 11:50:18;;;;;;;8.83;4.40;;;;;;;;;;5072256;28;20209;-64
2023/03/27 11:52:50;;;;;;;7.30;2.90;;;;;;;;;;5074331;28;20689;-64
2023/03/27 11:55:24;;;;;;;5.97;3.13;;;;;;;;;;5073898;28;20642;-65
2023/03/27 11:58:03;;;;;;;9.30;3.07;;;;;;;;;;5074101;28;20224;-64
2023/03/27 12:00:35;;;;;;;3.97;2.40;;;;;;;;;;5072041;28;20261;-63
2023/03/27 12:03:12;;;;;;;5.93;1.60;;;;;;;;;;5062162;28;20264;-65
2023/03/27 12:05:58;;;;;;;3.37;1.70;;;;;;;;;;5053639;28;20232;-63
2023/03/27 12:08:39;;;;;;;4.17;1.90;;;;;;;;;;5053875;28;20733;-63
2023/03/27 12:11:09;;;;;;;3.80;1.97;;;;;;;;;;5069638;28;20209;-62
2023/03/27 12:13:55;;;;;;;4.70;1.90;;;;;;;;;;5070410;28;20198;-63
2023/03/27 12:16:31;;;;;;;3.57;1.67;;;;;;;;;;5054518;28;20570;-64
2023/03/27 12:18:59;;;;;;;3.37;1.70;;;;;;;;;;5061038;28;20247;-65
2023/03/27 12:21:47;;;;;;;3.00;1.60;;;;;;;;;;5075334;28;20310;-64
2023/03/27 12:24:33;;;;;;;5.10;2.63;;;;;;;;;;5074067;28;20270;-64
2023/03/27 12:27:20;;;;;;;6.80;2.53;;;;;;;;;;5073716;28;20217;-64
2023/03/27 12:29:48;;;;;;;4.53;1.60;;;;;;;;;;5074074;28;20204;-63
2023/03/27 12:32:34;;;;;;;4.60;2.10;;;;;;;;;;5073706;28;20201;-64
2023/03/27 12:35:14;;;;;;;7.03;2.00;;;;;;;;;;5073666;28;20204;-63
2023/03/27 12:38:07;;;;;;;7.30;3.57;;;;;;;;;;5072938;28;20235;-63
2023/03/27 12:40:35;;;;;;;4.60;1.70;;;;;;;;;;5072661;28;20239;-62
2023/03/27 12:43:17;;;;;;;3.90;1.70;;;;;;;;;;5073264;28;20256;-64
2023/03/27 12:46:03;;;;;;;3.73;1.70;;;;;;;;;;5091016;28;20782;-64
2023/03/27 12:48:31;;;;;;;5.17;1.43;;;;;;;;;;5070129;28;20699;-62
2023/03/27 12:50:58;;;;;;;1.90;1.43;;;;;;;;;;5069387;28;20694;-63
2023/03/27 12:53:26;;;;;;;4.53;1.80;;;;;;;;;;5072157;28;20582;-64
2023/03/27 12:56:12;;;;;;;1.97;1.70;;;;;;;;;;5072642;28;20285;-64
2023/03/27 12:58:40;;;;;;;4.10;1.70;;;;;;;;;;5072827;28;20296;-63
2023/03/27 13:01:09;;;;;;;1.90;1.40;;;;;;;;;;5069759;28;20292;-62
2023/03/27 13:03:37;;;;;;;5.90;3.70;;;;;;;;;;5072845;28;20610;-63
2023/03/27 13:06:18;;;;;;;4.60;1.70;;;;;;;;;;5090387;28;20702;-63
2023/03/27 13:08:46;;;;;;;6.13;3.67;;;;;;;;;;5069394;28;20189;-62
2023/03/27 13:11:22;;;;;;;12.17;5.47;;;;;;;;;;5075219;28;20224;-63
2023/03/27 13:14:02;;;;;;;4.80;2.90;;;;;;;;;;5072971;28;20262;-62
2023/03/27 13:16:42;;;;;;;7.77;4.00;;;;;;;;;;5072477;28;20250;-62
2023/03/27 13:19:29;;;;;;;3.90;2.00;;;;;;;;;;5069323;28;20675;-63
2023/03/27 13:21:56;;;;;;;9.97;4.37;;;;;;;;;;5072306;28;20243;-64
2023/03/27 13:24:23;;;;;;;5.90;4.37;;;;;;;;;;5072144;28;20228;-63
2023/03/27 13:26:57;;;;;;;3.30;2.07;;;;;;;;;;5072230;28;20220;-63
2023/03/27 13:29:26;;;;;;;14.93;10.70;;;;;;;;;;5072746;28;20270;-61
2023/03/27 13:32:04;;;;;;;8.47;3.67;;;;;;;;;;5088874;28;20262;-64
2023/03/27 13:34:35;;;;;;;10.37;8.17;;;;;;;;;;5072777;28;20679;-64
2023/03/27 13:37:15;;;;;;;5.37;3.27;;;;;;;;;;5062043;28;20233;-64
2023/03/27 13:39:47;;;;;;;3.83;3.00;;;;;;;;;;5068709;28;20202;-63
2023/03/27 13:42:19;;;;;;;3.60;1.70;;;;;;;;;;5052426;28;20205;-62
2023/03/27 13:44:53;;;;;;;3.13;1.60;;;;;;;;;;5062513;28;20358;-62
2023/03/27 13:47:32;;;;;;;3.33;1.80;;;;;;;;;;5072074;28;20225;-65
2023/03/27 13:50:09;;;;;;;2.77;2.53;;;;;;;;;;5064995;28;20300;-64
2023/03/27 13:53:00;;;;;;;7.83;3.30;;;;;;;;;;5053009;28;20639;-63
2023/03/27 13:55:42;;;;;;;2.47;2.10;;;;;;;;;;5052526;28;20232;-62
2023/03/27 13:58:16;;;;;;;17.63;7.93;;;;;;;;;;5052450;28;20197;-64
2023/03/27 14:00:43;;;;;;;3.87;1.40;;;;;;;;;;5054586;28;20240;-64
2023/03/27 14:03:30;;;;;;;2.67;1.50;;;;;;;;;;5071392;28;20235;-62
2023/03/27 14:06:01;;;;;;;3.90;1.80;;;;;;;;;;5073026;28;20220;-62
2023/03/27 14:08:32;;;;;;;2.00;1.67;;;;;;;;;;5069353;28;20201;-64
2023/03/27 14:11:09;;;;;;;2.53;1.67;;;;;;;;;;5053203;28;20198;-64
2023/03/27 14:13:36;;;;;;;2.47;1.50;;;;;;;;;;5063934;28;20216;-62
2023/03/27 14:16:21;;;;;;;4.93;1.40;;;;;;;;;;5068731;28;20229;-63
2023/03/27 14:19:07;;;;;;;2.07;1.27;;;;;;;;;;5065489;28;20278;-63
2023/03/27 14:21:57;;;;;;;6.93;3.50;;;;;;;;;;5071012;28;20689;-63
2023/03/27 14:24:25;;;;;;;4.43;3.43;;;;;;;;;;5087356;28;20217;-63
2023/03/27 14:26:53;;;;;;;11.40;6.10;;;;;;;;;;5071681;28;20221;-65
2023/03/27 14:29:21;;;;;;;4.27;2.87;;;;;;;;;;5072008;28;20240;-63
2023/03/27 14:31:49;;;;;;;2.53;2.10;;;;;;;;;;5068441;28;20612;-64
2023/03/27 14:34:28;;;;;;;8.47;4.87;;;;;;;;;;5070933;28;20246;-65
2023/03/27 14:37:21;;;;;;;3.33;2.10;;;;;;;;;;5076360;28;20232;-62
2023/03/27 14:39:53;;;;;;;1.63;1.50;;;;;;;;;;5073525;28;20212;-64
2023/03/27 14:42:20;;;;;;;4.13;2.30;;;;;;;;;;5071903;28;20205;-62
2023/03/27 14:44:49;;;;;;;2.57;1.37;;;;;;;;;;5055055;28;20221;-65
2023/03/27 14:47:17;;;;;;;2.87;1.60;;;;;;;;;;5055424;28;20232;-64
2023/03/27 14:49:47;;;;;;;3.20;1.57;;;;;;;;;;5074494;28;20212;-63
2023/03/27 14:52:20;;;;;;;2.20;1.60;;;;;;;;;;5074978;28;20296;-62
2023/03/27 14:54:49;;;;;;;1.50;1.40;;;;;;;;;;5075098;28;20236;-62
2023/03/27 14:57:24;;;;;;;2.47;1.50;;;;;;;;;;5076505;28;20239;-62
2023/03/27 14:59:52;;;;;;;2.90;1.77;;;;;;;;;;5066546;28;20212;-65
2023/03/27 15:02:20;;;;;;;9.90;6.20;;;;;;;;;;5055370;28;20484;-62
2023/03/27 15:04:47;;;;;;;5.20;3.07;;;;;;;;;;5055022;28;20218;-64
2023/03/27 15:07:18;;;;;;;10.23;3.30;;;;;;;;;;5054855;28;20317;-64
2023/03/27 15:09:46;;;;;;;9.40;4.33;;;;;;;;;;5083335;28;20204;-64